Zeran (malta) — 9HHJ5 — position and weather

sailwx.info

Track history (hours):
 
Tides and Currents Weather Stations Pressure Air Temp Water Temp Dewpoint Dewpoint Depression Visibility Wind Speed Wind Dir Waves Ship Positions

Zeran (malta)

Last reported at 2014-Nov-15 04:20 UTC. Time now 2014-Nov-21 08:34 UTC.
Position N 35°55' E 012°14'.

Length 148 m; beam 24 m.

Type: Ship (hazmat cat A). MMSI: 249846000.

Date/timePositionNaut miles runAvg speedWind from/ knotsBaromVisibWave heightAir tempDewpointWater temp
2014-Nov-15 04:20N 35°55' E 012°14'8 8.7
2014-Nov-15 03:26N 36°02' E 012°10'9 8.7
2014-Nov-15 02:22N 36°11' E 012°06'7 8.8
2014-Nov-15 01:33N 36°18' E 012°03'9 8.8
2014-Nov-15 00:33N 36°26' E 011°58'9 8.8
2014-Nov-14 23:33N 36°34' E 011°54'8 8.4
2014-Nov-14 22:33N 36°42' E 011°50'9 8.7
2014-Nov-14 21:34N 36°50' E 011°45'9 8.9
2014-Nov-14 20:34N 36°58' E 011°41'402 9.9
2014-Nov-13 04:08N 43°25' E 009°24'711.5
2014-Nov-13 03:33N 43°32' E 009°21'1111.5
2014-Nov-13 02:34N 43°43' E 009°16'1111.5
2014-Nov-13 01:33N 43°53' E 009°11'1111.4
2014-Nov-13 00:34N 44°04' E 009°05'1111.1
2014-Nov-12 23:33N 44°15' E 008°60'10 9.9
2014-Nov-12 22:33N 44°24' E 008°55'2 0.6
2014-Nov-12 20:03N 44°24' E 008°53'0 0.0
2014-Nov-12 19:33N 44°24' E 008°53'0 0.0
2014-Nov-12 18:27N 44°24' E 008°53'0 0.0
2014-Nov-12 17:21N 44°24' E 008°53'0 0.0
2014-Nov-12 15:24N 44°24' E 008°53'0 0.0
2014-Nov-12 13:33N 44°24' E 008°53'0 0.0
2014-Nov-12 11:18N 44°24' E 008°53'0 0.0
2014-Nov-12 10:27N 44°24' E 008°53'0 0.0
2014-Nov-12 07:30N 44°24' E 008°53'0 0.0
2014-Nov-12 06:33N 44°24' E 008°53'0 0.0
2014-Nov-12 04:15N 44°24' E 008°53'0 0.0
2014-Nov-12 03:33N 44°24' E 008°53'0 0.0
2014-Nov-12 01:15N 44°24' E 008°53'0 0.0
2014-Nov-12 00:21N 44°24' E 008°53'0 0.0
2014-Nov-11 23:15N 44°24' E 008°53'0 0.0
2014-Nov-11 21:33N 44°24' E 008°53'0 0.0
2014-Nov-11 19:27N 44°24' E 008°53'0 0.0
2014-Nov-11 18:33N 44°24' E 008°53'0 0.0
2014-Nov-11 17:27N 44°24' E 008°53'0 0.0
2014-Nov-11 16:27N 44°24' E 008°53'0 0.0
2014-Nov-11 15:21N 44°24' E 008°53'0 0.0
2014-Nov-11 14:33N 44°24' E 008°53'0 0.0
2014-Nov-11 12:21N 44°24' E 008°53'0 0.0
2014-Nov-11 11:33N 44°24' E 008°53'0 0.0
2014-Nov-11 10:33N 44°24' E 008°53'0 0.0
2014-Nov-11 07:27N 44°24' E 008°53'0 0.0
2014-Nov-11 06:33N 44°24' E 008°53'0 0.0
2014-Nov-11 04:15N 44°24' E 008°53'0 0.0
2014-Nov-11 03:33N 44°24' E 008°53'0 0.0
2014-Nov-11 02:24N 44°24' E 008°53'0 0.0
2014-Nov-11 01:30N 44°24' E 008°53'0 0.0
2014-Nov-11 00:33N 44°24' E 008°53'0 0.0
2014-Nov-10 23:30N 44°24' E 008°53'0 0.0
2014-Nov-10 22:27N 44°24' E 008°53'0 0.0
2014-Nov-10 19:33N 44°24' E 008°53'0 0.0
2014-Nov-10 18:33N 44°24' E 008°53'0 0.0
2014-Nov-10 16:27N 44°24' E 008°53'0 0.0
2014-Nov-10 15:33N 44°24' E 008°53'0 0.0
2014-Nov-10 11:24N 44°24' E 008°53'0 0.0
2014-Nov-10 08:15N 44°24' E 008°53'0 0.0
2014-Nov-10 07:33N 44°24' E 008°53'2 2.2
2014-Nov-10 06:31N 44°24' E 008°56'8 7.3
2014-Nov-10 05:28N 44°17' E 009°01'8 8.6
2014-Nov-10 04:32N 44°09' E 009°05'9 9.5
2014-Nov-10 03:33N 44°01' E 009°11'1010.0
2014-Nov-10 02:33N 43°52' E 009°16'1010.2
2014-Nov-10 01:33N 43°42' E 009°20'1010.3
2014-Nov-10 00:33N 43°32' E 009°26'  
2014-Nov-06 05:30N 35°33' E 013°19'1010.9
2014-Nov-06 04:33N 35°24' E 013°25'1210.9
2014-Nov-06 03:30N 35°14' E 013°33'1011.0
2014-Nov-06 02:33N 35°05' E 013°39'  
Track history (hours):
 
Tides and Currents Weather Stations Pressure Air Temp Water Temp Dewpoint Dewpoint Depression Visibility Wind Speed Wind Dir Waves Ship Positions

Zeran (malta)

Last reported at 2014-Nov-15 04:20 UTC. Time now 2014-Nov-21 08:34 UTC.
Position N 35°55' E 012°14'.

Length 148 m; beam 24 m.

Type: Ship (hazmat cat A). MMSI: 249846000.

Date/timePositionNaut miles runAvg speedWind from/ knotsBaromVisibWave heightAir tempDewpointWater temp
2014-Nov-15 04:20N 35°55' E 012°14'8 8.7
2014-Nov-15 03:26N 36°02' E 012°10'9 8.7
2014-Nov-15 02:22N 36°11' E 012°06'7 8.8
2014-Nov-15 01:33N 36°18' E 012°03'9 8.8
2014-Nov-15 00:33N 36°26' E 011°58'9 8.8
2014-Nov-14 23:33N 36°34' E 011°54'8 8.4
2014-Nov-14 22:33N 36°42' E 011°50'9 8.7
2014-Nov-14 21:34N 36°50' E 011°45'9 8.9
2014-Nov-14 20:34N 36°58' E 011°41'402 9.9
2014-Nov-13 04:08N 43°25' E 009°24'711.5
2014-Nov-13 03:33N 43°32' E 009°21'1111.5
2014-Nov-13 02:34N 43°43' E 009°16'1111.5
2014-Nov-13 01:33N 43°53' E 009°11'1111.4
2014-Nov-13 00:34N 44°04' E 009°05'1111.1
2014-Nov-12 23:33N 44°15' E 008°60'10 9.9
2014-Nov-12 22:33N 44°24' E 008°55'2 0.6
2014-Nov-12 20:03N 44°24' E 008°53'0 0.0
2014-Nov-12 19:33N 44°24' E 008°53'0 0.0
2014-Nov-12 18:27N 44°24' E 008°53'0 0.0
2014-Nov-12 17:21N 44°24' E 008°53'0 0.0
2014-Nov-12 15:24N 44°24' E 008°53'0 0.0
2014-Nov-12 13:33N 44°24' E 008°53'0 0.0
2014-Nov-12 11:18N 44°24' E 008°53'0 0.0
2014-Nov-12 10:27N 44°24' E 008°53'0 0.0
2014-Nov-12 07:30N 44°24' E 008°53'0 0.0
2014-Nov-12 06:33N 44°24' E 008°53'0 0.0
2014-Nov-12 04:15N 44°24' E 008°53'0 0.0
2014-Nov-12 03:33N 44°24' E 008°53'0 0.0
2014-Nov-12 01:15N 44°24' E 008°53'0 0.0
2014-Nov-12 00:21N 44°24' E 008°53'0 0.0
2014-Nov-11 23:15N 44°24' E 008°53'0 0.0
2014-Nov-11 21:33N 44°24' E 008°53'0 0.0
2014-Nov-11 19:27N 44°24' E 008°53'0 0.0
2014-Nov-11 18:33N 44°24' E 008°53'0 0.0
2014-Nov-11 17:27N 44°24' E 008°53'0 0.0
2014-Nov-11 16:27N 44°24' E 008°53'0 0.0
2014-Nov-11 15:21N 44°24' E 008°53'0 0.0
2014-Nov-11 14:33N 44°24' E 008°53'0 0.0
2014-Nov-11 12:21N 44°24' E 008°53'0 0.0
2014-Nov-11 11:33N 44°24' E 008°53'0 0.0
2014-Nov-11 10:33N 44°24' E 008°53'0 0.0
2014-Nov-11 07:27N 44°24' E 008°53'0 0.0
2014-Nov-11 06:33N 44°24' E 008°53'0 0.0
2014-Nov-11 04:15N 44°24' E 008°53'0 0.0
2014-Nov-11 03:33N 44°24' E 008°53'0 0.0
2014-Nov-11 02:24N 44°24' E 008°53'0 0.0
2014-Nov-11 01:30N 44°24' E 008°53'0 0.0
2014-Nov-11 00:33N 44°24' E 008°53'0 0.0
2014-Nov-10 23:30N 44°24' E 008°53'0 0.0
2014-Nov-10 22:27N 44°24' E 008°53'0 0.0
2014-Nov-10 19:33N 44°24' E 008°53'0 0.0
2014-Nov-10 18:33N 44°24' E 008°53'0 0.0
2014-Nov-10 16:27N 44°24' E 008°53'0 0.0
2014-Nov-10 15:33N 44°24' E 008°53'0 0.0
2014-Nov-10 11:24N 44°24' E 008°53'0 0.0
2014-Nov-10 08:15N 44°24' E 008°53'0 0.0
2014-Nov-10 07:33N 44°24' E 008°53'2 2.2
2014-Nov-10 06:31N 44°24' E 008°56'8 7.3
2014-Nov-10 05:28N 44°17' E 009°01'8 8.6
2014-Nov-10 04:32N 44°09' E 009°05'9 9.5
2014-Nov-10 03:33N 44°01' E 009°11'1010.0
2014-Nov-10 02:33N 43°52' E 009°16'1010.2
2014-Nov-10 01:33N 43°42' E 009°20'1010.3
2014-Nov-10 00:33N 43°32' E 009°26'  
2014-Nov-06 05:30N 35°33' E 013°19'1010.9
2014-Nov-06 04:33N 35°24' E 013°25'1210.9
2014-Nov-06 03:30N 35°14' E 013°33'1011.0
2014-Nov-06 02:33N 35°05' E 013°39'  

Dump ship's entire track history